createdAt,value
2022-12-14T00:02:30.247Z,69.96
2022-12-14T00:05:03.959Z,70.02
2022-12-14T00:07:39.044Z,70.08
2022-12-14T00:10:12.999Z,70.16
2022-12-14T00:12:46.534Z,70.04
2022-12-14T00:15:24.032Z,70.10
2022-12-14T00:17:58.308Z,70.17
2022-12-14T00:20:32.154Z,70.37
2022-12-14T00:23:07.181Z,70.54
2022-12-14T00:25:40.752Z,70.29
2022-12-14T00:28:14.252Z,70.65
2022-12-14T00:30:47.838Z,70.55
2022-12-14T00:33:21.369Z,70.69
2022-12-14T00:35:55.062Z,70.44
2022-12-14T00:38:30.876Z,70.58
2022-12-14T00:41:04.698Z,70.36
2022-12-14T00:43:39.068Z,70.56
2022-12-14T00:46:12.672Z,70.71
2022-12-14T00:48:46.673Z,70.79
2022-12-14T00:51:20.377Z,70.78
2022-12-14T00:53:55.332Z,71.00
2022-12-14T00:56:28.784Z,70.82
2022-12-14T00:59:02.304Z,70.83
2022-12-14T01:01:36.213Z,71.06
2022-12-14T01:04:18.751Z,70.74
2022-12-14T01:06:54.289Z,70.89
2022-12-14T01:09:29.588Z,70.95
2022-12-14T01:12:03.097Z,71.02
2022-12-14T01:14:36.697Z,71.16
2022-12-14T01:17:10.202Z,71.17
2022-12-14T01:19:43.802Z,70.92
2022-12-14T01:22:22.380Z,70.73
2022-12-14T01:24:57.415Z,70.95
2022-12-14T01:27:31.063Z,71.08
2022-12-14T01:30:05.115Z,71.14
2022-12-14T01:32:38.215Z,70.79
2022-12-14T01:35:11.870Z,70.91
2022-12-14T01:37:45.310Z,71.08
2022-12-14T01:40:24.005Z,71.29
2022-12-14T01:43:04.894Z,71.23
2022-12-14T01:45:40.080Z,71.25
2022-12-14T01:48:19.608Z,71.38
2022-12-14T01:50:58.517Z,71.33
2022-12-14T01:53:39.269Z,71.43
2022-12-14T01:56:29.169Z,71.49
2022-12-14T01:59:08.812Z,71.46
2022-12-14T02:01:59.899Z,71.40
2022-12-14T02:04:39.102Z,71.50
2022-12-14T02:07:18.282Z,71.47
2022-12-14T02:10:05.920Z,71.60
2022-12-14T02:12:46.446Z,71.34
2022-12-14T02:15:21.189Z,71.52
2022-12-14T02:18:08.295Z,71.64
2022-12-14T02:20:55.771Z,71.53
2022-12-14T02:24:01.069Z,71.57
2022-12-14T02:30:20.502Z,71.37
2022-12-14T02:33:13.359Z,71.36
2022-12-14T02:35:59.714Z,71.51
2022-12-14T02:38:53.369Z,71.51
2022-12-14T02:41:40.934Z,71.61
2022-12-14T02:44:39.383Z,71.56
2022-12-14T02:47:40.615Z,71.64
2022-12-14T02:50:24.830Z,71.61
2022-12-14T02:53:14.943Z,71.77
2022-12-14T02:56:00.888Z,71.75
2022-12-14T02:58:51.002Z,71.49
2022-12-14T03:01:36.833Z,71.48
2022-12-14T03:04:12.966Z,71.50
2022-12-14T03:06:58.999Z,71.61
2022-12-14T03:09:38.083Z,71.39
2022-12-14T03:12:21.279Z,71.55
2022-12-14T03:15:06.610Z,71.34
2022-12-14T03:17:44.668Z,71.51
2022-12-14T03:20:31.580Z,71.15
2022-12-14T03:23:10.194Z,71.17
2022-12-14T03:25:50.967Z,71.23
2022-12-14T03:28:42.428Z,71.29
2022-12-14T03:31:22.239Z,70.91
2022-12-14T03:34:16.208Z,71.18
2022-12-14T03:37:04.006Z,71.25
2022-12-14T03:39:41.850Z,71.30
2022-12-14T03:42:24.911Z,71.14
2022-12-14T03:45:08.647Z,71.37
2022-12-14T03:48:12.011Z,71.08
2022-12-14T03:50:51.564Z,71.39
2022-12-14T03:53:54.977Z,71.46
2022-12-14T03:56:40.358Z,71.44
2022-12-14T03:59:24.391Z,71.37
2022-12-14T04:02:12.386Z,71.41
2022-12-14T04:05:00.388Z,71.53
2022-12-14T04:07:45.293Z,71.33
2022-12-14T04:10:47.288Z,71.39
2022-12-14T04:13:43.788Z,71.38
2022-12-14T04:16:46.044Z,71.37
2022-12-14T04:19:31.306Z,71.33
2022-12-14T04:22:13.165Z,71.36
2022-12-14T04:25:12.039Z,71.49
2022-12-14T04:27:56.596Z,71.60
2022-12-14T04:30:35.516Z,71.45
2022-12-14T04:33:34.536Z,71.71
2022-12-14T04:36:21.041Z,71.53
2022-12-14T04:39:04.448Z,71.57
2022-12-14T04:41:56.947Z,71.84
2022-12-14T04:44:39.731Z,71.97
2022-12-14T04:47:18.165Z,71.77
2022-12-14T04:49:59.510Z,71.78
2022-12-14T04:52:40.818Z,71.70
2022-12-14T04:55:27.076Z,71.78
2022-12-14T04:58:16.242Z,71.74
2022-12-14T05:01:24.364Z,71.90
2022-12-14T05:04:12.157Z,71.69
2022-12-14T05:07:01.391Z,71.86
2022-12-14T05:09:50.934Z,71.88
2022-12-14T05:12:42.058Z,71.81
2022-12-14T05:15:31.035Z,71.93
2022-12-14T05:18:13.689Z,71.89
2022-12-14T05:20:50.938Z,71.86
2022-12-14T05:23:30.988Z,72.18
2022-12-14T05:26:08.473Z,72.22
2022-12-14T05:28:50.484Z,72.31
2022-12-14T05:31:37.880Z,72.11
2022-12-14T05:34:17.110Z,72.23
2022-12-14T05:36:56.607Z,71.89
2022-12-14T05:39:34.437Z,71.81
2022-12-14T05:42:11.697Z,72.04
2022-12-14T05:44:50.752Z,71.91
2022-12-14T05:47:26.738Z,72.07
2022-12-14T05:50:09.984Z,72.17
2022-12-14T05:52:49.272Z,72.18
2022-12-14T05:55:27.328Z,72.17
2022-12-14T05:58:13.465Z,71.87
2022-12-14T06:00:54.885Z,72.08
2022-12-14T06:03:32.830Z,71.95
2022-12-14T06:06:18.682Z,72.25
2022-12-14T06:08:55.341Z,72.30
2022-12-14T06:11:32.018Z,72.22
2022-12-14T06:14:12.479Z,72.06
2022-12-14T06:16:50.869Z,72.12
2022-12-14T06:19:27.830Z,72.10
2022-12-14T06:22:15.104Z,71.90
2022-12-14T06:24:52.649Z,71.65
2022-12-14T06:27:30.234Z,71.62
2022-12-14T06:30:16.019Z,71.95
2022-12-14T06:33:00.041Z,71.89
2022-12-14T06:35:49.225Z,71.89
2022-12-14T06:38:42.719Z,71.90
2022-12-14T06:41:30.859Z,71.90
2022-12-14T06:44:09.841Z,71.85
2022-12-14T06:46:55.435Z,72.00
2022-12-14T06:49:41.339Z,72.00
2022-12-14T06:52:20.820Z,71.84
2022-12-14T06:55:01.627Z,71.91
2022-12-14T06:57:41.233Z,71.92
2022-12-14T07:00:23.703Z,72.07
2022-12-14T07:03:03.265Z,72.23
2022-12-14T07:05:45.776Z,71.94
2022-12-14T07:08:23.632Z,72.12
2022-12-14T07:11:15.119Z,72.19
2022-12-14T07:13:56.165Z,72.00
2022-12-14T07:16:34.075Z,71.85
2022-12-14T07:19:21.361Z,71.71
2022-12-14T07:21:58.484Z,71.75
2022-12-14T07:24:32.304Z,71.82
2022-12-14T07:27:07.403Z,71.39
2022-12-14T07:29:54.361Z,71.42
2022-12-14T07:32:30.191Z,71.44
2022-12-14T07:35:23.357Z,71.51
2022-12-14T07:38:03.060Z,71.44
2022-12-14T07:40:42.046Z,71.56
2022-12-14T07:43:24.598Z,71.39
2022-12-14T07:46:02.613Z,71.23
2022-12-14T07:48:41.150Z,71.40
2022-12-14T07:51:21.176Z,71.36
2022-12-14T07:54:06.744Z,71.17
2022-12-14T07:56:46.594Z,71.20
2022-12-14T07:59:30.835Z,71.09
2022-12-14T08:02:07.677Z,71.09
2022-12-14T08:04:41.247Z,71.08
2022-12-14T08:07:14.968Z,71.04
2022-12-14T08:09:49.416Z,71.09
2022-12-14T08:12:23.047Z,71.04
2022-12-14T08:14:58.138Z,70.49
2022-12-14T08:17:33.513Z,70.36
2022-12-14T08:20:08.223Z,70.19
2022-12-14T08:22:41.920Z,69.97
2022-12-14T08:25:15.615Z,69.62
2022-12-14T08:27:49.189Z,69.25
2022-12-14T08:30:24.354Z,68.97
2022-12-14T08:33:00.302Z,68.50
2022-12-14T08:35:34.078Z,67.84
2022-12-14T08:38:08.412Z,67.25
2022-12-14T08:40:42.220Z,66.34
2022-12-14T08:43:19.020Z,65.50
2022-12-14T08:45:57.597Z,64.24
2022-12-14T08:48:31.317Z,62.78
2022-12-14T08:51:05.451Z,61.90
2022-12-14T08:53:40.115Z,60.91
2022-12-14T08:56:15.424Z,60.04
2022-12-14T08:58:49.555Z,59.71
2022-12-14T09:01:32.119Z,59.26
2022-12-14T09:04:11.816Z,58.79
2022-12-14T09:06:45.501Z,58.33
2022-12-14T09:09:19.029Z,57.61
2022-12-14T09:11:52.689Z,56.88
2022-12-14T09:14:26.292Z,55.75
2022-12-14T09:17:01.988Z,54.05
2022-12-14T09:19:36.357Z,52.69
2022-12-14T09:22:12.997Z,51.49
2022-12-14T09:24:46.965Z,50.15
2022-12-14T09:27:22.548Z,48.93
2022-12-14T09:30:00.339Z,47.54
2022-12-14T09:32:35.748Z,46.53
2022-12-14T09:35:09.874Z,45.45
2022-12-14T09:37:43.565Z,44.40
2022-12-14T09:40:17.008Z,46.86
2022-12-14T09:42:59.189Z,43.88
2022-12-14T09:45:35.272Z,42.29
2022-12-14T09:48:18.333Z,41.05
2022-12-14T09:50:55.703Z,40.09
2022-12-14T09:53:30.267Z,39.37
2022-12-14T09:56:05.510Z,38.35
2022-12-14T09:58:42.570Z,37.60
2022-12-14T10:01:43.896Z,37.14
2022-12-14T10:04:35.290Z,36.44
2022-12-14T10:07:18.859Z,35.86
2022-12-14T10:10:03.258Z,35.46
2022-12-14T10:13:01.261Z,35.45
2022-12-14T10:15:50.362Z,34.64
2022-12-14T10:18:59.016Z,34.17
2022-12-14T10:21:44.380Z,34.32
2022-12-14T10:24:23.390Z,33.83
2022-12-14T10:26:57.217Z,34.05
2022-12-14T10:29:33.478Z,37.08
2022-12-14T10:32:20.031Z,35.91
2022-12-14T10:34:53.874Z,36.37
2022-12-14T10:37:31.265Z,38.37
2022-12-14T10:40:29.165Z,38.22
2022-12-14T10:43:37.130Z,39.53
2022-12-14T10:46:22.107Z,40.23
2022-12-14T10:49:03.818Z,41.14
2022-12-14T10:51:41.145Z,42.21
2022-12-14T10:54:27.401Z,43.17
2022-12-14T10:57:01.263Z,43.65
2022-12-14T10:59:41.332Z,44.17
2022-12-14T11:02:23.380Z,44.76
2022-12-14T11:04:58.818Z,44.66
2022-12-14T11:07:39.496Z,45.06
2022-12-14T11:10:22.373Z,45.34
2022-12-14T11:13:02.639Z,45.64
2022-12-14T11:15:39.074Z,45.79
2022-12-14T11:18:31.945Z,45.37
2022-12-14T11:21:07.242Z,44.86
2022-12-14T11:23:42.837Z,44.83
2022-12-14T11:26:28.051Z,44.55
2022-12-14T11:29:03.710Z,44.30
2022-12-14T11:31:40.305Z,44.05
2022-12-14T11:34:25.406Z,44.21
2022-12-14T11:37:12.969Z,44.43
2022-12-14T11:39:52.151Z,44.35
2022-12-14T11:42:27.900Z,43.84
2022-12-14T11:45:28.991Z,43.21
2022-12-14T11:48:20.466Z,42.16
2022-12-14T11:50:55.775Z,41.13
2022-12-14T11:53:29.353Z,40.12
2022-12-14T11:56:06.772Z,39.27
2022-12-14T11:58:49.294Z,38.41
2022-12-14T12:01:27.307Z,37.78
2022-12-14T12:04:03.841Z,37.47
2022-12-14T12:06:37.509Z,37.05
2022-12-14T12:09:28.141Z,38.05
2022-12-14T12:12:02.077Z,37.08
2022-12-14T12:14:40.463Z,36.47
2022-12-14T12:17:21.025Z,36.02
2022-12-14T12:19:54.766Z,36.39
2022-12-14T12:22:31.659Z,36.45
2022-12-14T12:25:30.784Z,35.97
2022-12-14T12:28:11.653Z,35.82
2022-12-14T12:30:53.996Z,36.44
2022-12-14T12:33:38.976Z,36.39
2022-12-14T12:36:23.357Z,36.36
2022-12-14T12:39:11.476Z,36.84
2022-12-14T12:42:06.575Z,37.59
2022-12-14T12:44:49.646Z,37.66
2022-12-14T12:47:43.123Z,38.49
2022-12-14T12:50:25.736Z,39.21
2022-12-14T12:53:04.544Z,39.81
2022-12-14T12:55:44.022Z,40.37
2022-12-14T12:58:23.106Z,41.19
2022-12-14T13:01:02.679Z,42.00
2022-12-14T13:03:48.929Z,42.36
2022-12-14T13:06:26.366Z,43.15
2022-12-14T13:09:09.325Z,43.73
2022-12-14T13:11:49.964Z,43.98
2022-12-14T13:14:37.516Z,44.66
2022-12-14T13:17:26.588Z,44.98
2022-12-14T13:20:07.706Z,45.67
2022-12-14T13:22:44.186Z,46.36
2022-12-14T13:25:28.511Z,47.16
2022-12-14T13:28:22.385Z,47.90
2022-12-14T13:31:23.732Z,48.33
2022-12-14T13:34:22.452Z,48.81
2022-12-14T13:37:40.499Z,49.22
2022-12-14T13:40:37.926Z,49.82
2022-12-14T13:43:32.822Z,50.13
2022-12-14T13:46:08.628Z,50.49
2022-12-14T13:48:44.445Z,50.76
2022-12-14T13:51:28.033Z,51.09
2022-12-14T13:54:08.435Z,51.25
2022-12-14T13:56:42.138Z,51.61
2022-12-14T13:59:28.629Z,51.94
2022-12-14T14:02:03.526Z,51.87
2022-12-14T14:04:37.302Z,52.20
2022-12-14T14:07:50.439Z,52.33
2022-12-14T14:10:33.702Z,52.58
2022-12-14T14:13:39.284Z,52.90
2022-12-14T14:16:28.387Z,53.09
2022-12-14T14:19:15.610Z,53.27
2022-12-14T14:25:00.218Z,53.50
2022-12-14T14:27:40.209Z,53.81
2022-12-14T14:30:26.345Z,53.89
2022-12-14T14:33:35.866Z,54.04
2022-12-14T14:36:09.223Z,54.26
2022-12-14T14:38:43.571Z,54.36
2022-12-14T14:41:24.620Z,54.73
2022-12-14T14:44:04.175Z,55.01
2022-12-14T14:46:41.849Z,55.10
2022-12-14T14:49:24.193Z,55.24
2022-12-14T14:51:59.236Z,55.38
2022-12-14T14:57:57.271Z,55.24
2022-12-14T15:00:41.204Z,55.51
2022-12-14T15:03:16.771Z,55.57
2022-12-14T15:05:50.676Z,55.71
2022-12-14T15:08:35.573Z,55.91
2022-12-14T15:11:17.300Z,55.90
2022-12-14T15:13:55.708Z,55.98
2022-12-14T15:16:34.005Z,56.24
2022-12-14T15:19:23.934Z,56.37
2022-12-14T15:22:00.525Z,56.23
2022-12-14T15:24:42.410Z,56.30
2022-12-14T15:27:25.400Z,56.41
2022-12-14T15:30:04.060Z,56.58
2022-12-14T15:32:45.771Z,56.53
2022-12-14T15:35:27.156Z,56.50
2022-12-14T15:38:04.185Z,56.63
2022-12-14T15:40:37.674Z,56.72
2022-12-14T15:43:18.785Z,56.69
2022-12-14T15:45:55.500Z,56.83
2022-12-14T15:48:33.083Z,56.94
2022-12-14T15:51:09.252Z,57.16
2022-12-14T15:53:50.235Z,57.20
2022-12-14T15:56:29.216Z,57.27
2022-12-14T15:59:05.103Z,57.43
2022-12-14T16:01:42.070Z,57.47
2022-12-14T16:04:20.445Z,57.59
2022-12-14T16:07:06.231Z,57.60
2022-12-14T16:09:49.959Z,57.78
2022-12-14T16:12:29.854Z,57.61
2022-12-14T16:15:06.918Z,57.45
2022-12-14T16:17:40.873Z,57.79
2022-12-14T16:20:20.778Z,57.24
2022-12-14T16:23:04.075Z,57.42
2022-12-14T16:25:38.695Z,57.42
2022-12-14T16:28:26.995Z,57.92
2022-12-14T16:31:03.984Z,57.78
2022-12-14T16:33:40.367Z,58.13
2022-12-14T16:36:30.138Z,58.09
2022-12-14T16:39:09.435Z,58.17
2022-12-14T16:41:46.394Z,58.14
2022-12-14T16:44:24.712Z,58.32
2022-12-14T16:47:24.897Z,58.36
2022-12-14T16:50:00.464Z,58.62
2022-12-14T16:52:36.594Z,58.73
2022-12-14T16:55:14.327Z,58.69
2022-12-14T16:57:54.531Z,58.72
2022-12-14T17:00:30.058Z,58.80
2022-12-14T17:03:06.501Z,58.97
2022-12-14T17:05:42.860Z,59.00
2022-12-14T17:08:18.608Z,59.21
2022-12-14T17:10:52.728Z,59.10
2022-12-14T17:13:26.467Z,59.26
2022-12-14T17:16:00.771Z,58.60
2022-12-14T17:18:39.197Z,58.82
2022-12-14T17:21:18.618Z,59.17
2022-12-14T17:23:54.603Z,59.07
2022-12-14T17:26:36.672Z,59.19
2022-12-14T17:29:21.752Z,59.25
2022-12-14T17:31:57.873Z,59.82
2022-12-14T17:34:34.754Z,59.54
2022-12-14T17:37:16.103Z,59.69
2022-12-14T17:39:51.617Z,59.58
2022-12-14T17:42:25.167Z,59.71
2022-12-14T17:45:01.132Z,59.67
2022-12-14T17:47:34.751Z,59.89
2022-12-14T17:50:08.990Z,59.96
2022-12-14T17:52:43.002Z,60.01
2022-12-14T17:55:20.445Z,59.32
2022-12-14T17:57:59.998Z,59.87
2022-12-14T18:00:52.314Z,59.90
2022-12-14T18:03:37.107Z,59.78
2022-12-14T18:06:15.485Z,60.19
2022-12-14T18:08:50.095Z,60.19
2022-12-14T18:11:30.789Z,60.46
2022-12-14T18:14:07.076Z,60.33
2022-12-14T18:16:47.074Z,60.50
2022-12-14T18:19:25.526Z,60.51
2022-12-14T18:21:59.481Z,60.57
2022-12-14T18:24:33.473Z,60.74
2022-12-14T18:27:08.161Z,60.11
2022-12-14T18:29:47.486Z,60.31
2022-12-14T18:32:21.101Z,60.47
2022-12-14T18:34:54.730Z,60.43
2022-12-14T18:37:33.040Z,60.72
2022-12-14T18:40:07.877Z,60.61
2022-12-14T18:42:43.273Z,60.76
2022-12-14T18:45:20.311Z,60.89
2022-12-14T18:47:54.867Z,60.75
2022-12-14T18:50:29.963Z,60.89
2022-12-14T18:53:06.661Z,61.13
2022-12-14T18:55:41.463Z,61.04
2022-12-14T18:58:19.718Z,61.06
2022-12-14T19:00:55.552Z,61.10
2022-12-14T19:03:32.350Z,61.12
2022-12-14T19:06:42.135Z,61.30
2022-12-14T19:09:01.553Z,61.23
2022-12-14T19:11:38.878Z,61.27
2022-12-14T19:14:14.695Z,61.29
2022-12-14T19:16:48.315Z,61.26
2022-12-14T19:19:24.101Z,61.45
2022-12-14T19:21:59.551Z,61.40
2022-12-14T19:24:34.220Z,61.37
2022-12-14T19:27:07.849Z,61.48
2022-12-14T19:29:46.010Z,61.64
2022-12-14T19:32:19.736Z,61.37
2022-12-14T19:34:53.703Z,61.47
2022-12-14T19:37:27.315Z,60.99
2022-12-14T19:40:02.592Z,61.35
2022-12-14T19:42:36.193Z,61.39
2022-12-14T19:45:12.598Z,61.56
2022-12-14T19:47:46.432Z,61.53
2022-12-14T19:50:20.139Z,61.70
2022-12-14T19:52:56.805Z,61.87
2022-12-14T19:55:36.129Z,61.94
2022-12-14T19:58:11.622Z,62.27
2022-12-14T20:00:46.700Z,62.25
2022-12-14T20:03:20.846Z,62.33
2022-12-14T20:05:56.463Z,62.15
2022-12-14T20:08:31.907Z,62.40
2022-12-14T20:11:07.153Z,62.62
2022-12-14T20:13:40.618Z,62.39
2022-12-14T20:16:18.322Z,62.72
2022-12-14T20:18:56.555Z,62.57
2022-12-14T20:21:30.206Z,62.67
2022-12-14T20:24:10.974Z,63.13
2022-12-14T20:26:44.546Z,62.87
2022-12-14T20:29:18.191Z,62.97
2022-12-14T20:31:55.306Z,63.13
2022-12-14T20:34:29.228Z,63.17
2022-12-14T20:37:02.474Z,62.49
2022-12-14T20:39:36.110Z,62.84
2022-12-14T20:42:09.683Z,63.10
2022-12-14T20:44:43.237Z,63.03
2022-12-14T20:47:24.223Z,63.41
2022-12-14T20:49:57.965Z,63.39
2022-12-14T20:52:31.616Z,63.35
2022-12-14T20:55:07.128Z,62.79
2022-12-14T20:57:43.124Z,63.05
2022-12-14T21:00:20.390Z,63.20
2022-12-14T21:02:55.380Z,63.50
2022-12-14T21:05:29.038Z,63.61
2022-12-14T21:08:02.636Z,63.70
2022-12-14T21:10:41.362Z,63.75
2022-12-14T21:13:13.940Z,63.77
2022-12-14T21:15:47.470Z,63.90
2022-12-14T21:18:24.728Z,64.04
2022-12-14T21:21:04.921Z,63.84
2022-12-14T21:23:38.502Z,63.87
2022-12-14T21:26:12.162Z,64.09
2022-12-14T21:28:45.862Z,63.97
2022-12-14T21:31:21.939Z,64.06
2022-12-14T21:33:57.718Z,64.39
2022-12-14T21:36:31.425Z,64.22
2022-12-14T21:39:05.128Z,64.32
2022-12-14T21:41:56.260Z,64.43
2022-12-14T21:44:34.940Z,64.41
2022-12-14T21:47:11.840Z,64.54
2022-12-14T21:49:47.671Z,64.62
2022-12-14T21:52:24.010Z,64.69
2022-12-14T21:55:00.009Z,64.63
2022-12-14T21:57:50.978Z,64.84
2022-12-14T22:00:24.607Z,64.76
2022-12-14T22:03:00.677Z,65.02
2022-12-14T22:05:39.358Z,64.94
2022-12-14T22:08:12.912Z,64.82
2022-12-14T22:10:48.151Z,64.92
2022-12-14T22:13:24.764Z,64.84
2022-12-14T22:15:58.306Z,64.93
2022-12-14T22:18:31.962Z,65.00
2022-12-14T22:21:07.615Z,65.06
2022-12-14T22:23:43.622Z,65.05
2022-12-14T22:26:17.650Z,65.13
2022-12-14T22:28:52.320Z,65.07
2022-12-14T22:31:26.364Z,65.11
2022-12-14T22:33:59.671Z,64.54
2022-12-14T22:36:34.727Z,64.96
2022-12-14T22:39:08.477Z,65.05
2022-12-14T22:41:42.387Z,64.94
2022-12-14T22:44:15.999Z,65.23
2022-12-14T22:46:50.113Z,65.24
2022-12-14T22:49:23.987Z,65.29
2022-12-14T22:51:59.026Z,65.24
2022-12-14T22:54:33.170Z,65.26
2022-12-14T22:57:11.649Z,65.10
2022-12-14T22:59:54.009Z,65.09
2022-12-14T23:02:32.543Z,65.30
2022-12-14T23:05:10.479Z,65.39
2022-12-14T23:07:47.633Z,65.42
2022-12-14T23:10:39.352Z,65.39
2022-12-14T23:13:30.967Z,65.37
2022-12-14T23:16:22.236Z,65.66
2022-12-14T23:19:14.783Z,65.71
2022-12-14T23:22:08.990Z,65.75
2022-12-14T23:25:01.150Z,65.77
2022-12-14T23:27:52.498Z,65.50
2022-12-14T23:30:43.361Z,65.42
2022-12-14T23:33:36.834Z,65.90
2022-12-14T23:36:28.234Z,65.67
2022-12-14T23:39:19.325Z,65.49
2022-12-14T23:42:11.611Z,65.63
2022-12-14T23:45:02.628Z,65.46
2022-12-14T23:47:53.391Z,65.75
2022-12-14T23:50:44.546Z,65.69
2022-12-14T23:53:35.438Z,65.64
2022-12-14T23:56:26.216Z,65.89
2022-12-14T23:59:20.119Z,65.94
